Time;durP1;ratioP1;P1;durP2;ratioP2;P2;SDS_P1;SDS_P2;PMS_P1;PMS_P2;Temp;Humidity;BMP_temperature;BMP_pressure;BME280_temperature;BME280_humidity;BME280_pressure;Samples;Min_cycle;Max_cycle;Signal;HPM_P1;HPM_P2
2023/03/03 00:08:59;;;;;;;10.57;3.42;;;2.40;99.90;;;;;;6187153;23;20024;-95
2023/03/03 00:11:25;;;;;;;11.80;4.40;;;2.50;99.90;;;;;;6138409;23;20021;-96
2023/03/03 00:13:54;;;;;;;9.88;3.72;;;2.50;99.90;;;;;;6140484;23;20013;-96
2023/03/03 00:16:24;;;;;;;8.55;3.13;;;2.40;99.90;;;;;;6117759;23;20107;-94
2023/03/03 00:18:54;;;;;;;7.20;3.10;;;2.40;99.90;;;;;;6144787;23;20048;-92
2023/03/03 00:22:12;;;;;;;7.72;2.92;;;2.40;99.90;;;;;;6142129;23;20020;-96
2023/03/03 00:24:38;;;;;;;7.45;3.00;;;2.40;99.90;;;;;;6141677;23;20469;-94
2023/03/03 00:27:33;;;;;;;6.75;2.90;;;2.40;99.90;;;;;;6143899;23;20073;-95
2023/03/03 00:29:59;;;;;;;8.82;2.97;;;2.30;99.90;;;;;;6142501;23;20017;-92
2023/03/03 00:36:53;;;;;;;8.07;2.85;;;2.20;99.90;;;;;;6188796;23;20490;-95
2023/03/03 00:39:35;;;;;;;7.43;2.60;;;2.20;99.90;;;;;;6137496;23;20017;-95
2023/03/03 00:42:04;;;;;;;8.48;2.75;;;2.10;99.90;;;;;;6136338;23;20028;-94
2023/03/03 00:49:30;;;;;;;6.53;2.50;;;2.00;99.90;;;;;;6193869;23;20430;-96
2023/03/03 00:51:56;;;;;;;6.20;2.67;;;1.90;99.90;;;;;;6166925;23;20021;-95
2023/03/03 00:54:22;;;;;;;6.07;2.53;;;1.90;99.90;;;;;;6166532;23;20054;-92
2023/03/03 00:56:47;;;;;;;8.73;3.30;;;1.90;99.90;;;;;;6117639;23;20035;-95
2023/03/03 00:59:13;;;;;;;7.63;2.67;;;1.80;99.90;;;;;;6168807;23;20008;-93
2023/03/03 01:01:39;;;;;;;8.63;2.60;;;1.80;99.90;;;;;;6168660;23;20016;-95
2023/03/03 01:04:05;;;;;;;8.90;3.08;;;1.80;99.90;;;;;;6144433;23;20020;-96
2023/03/03 01:06:52;;;;;;;7.90;2.70;;;1.70;99.90;;;;;;6145792;23;20065;-96
2023/03/03 01:09:18;;;;;;;7.93;2.80;;;1.70;99.90;;;;;;6169016;23;20066;-95
2023/03/03 01:11:44;;;;;;;6.15;2.55;;;1.60;99.90;;;;;;6171242;23;20468;-95
2023/03/03 01:14:09;;;;;;;7.10;2.93;;;1.60;99.90;;;;;;6166094;23;20019;-91
2023/03/03 01:20:47;;;;;;;6.30;2.60;;;1.50;99.90;;;;;;6222840;23;20064;-95
2023/03/03 01:23:31;;;;;;;7.70;2.92;;;1.40;99.90;;;;;;6193170;23;20052;-87
2023/03/03 01:25:57;;;;;;;6.65;2.90;;;1.40;99.90;;;;;;6164986;23;20027;-86
2023/03/03 01:28:23;;;;;;;6.93;2.63;;;1.40;99.90;;;;;;6189927;23;20044;-88
2023/03/03 01:30:49;;;;;;;7.18;2.92;;;1.30;99.90;;;;;;6164618;23;20052;-92
2023/03/03 01:33:18;;;;;;;7.43;3.45;;;1.20;99.90;;;;;;6165063;23;20111;-90
2023/03/03 01:36:12;;;;;;;8.63;3.42;;;1.10;99.90;;;;;;6190177;23;20035;-87
2023/03/03 01:38:38;;;;;;;7.35;3.03;;;1.10;99.90;;;;;;6164352;23;20343;-88
2023/03/03 01:41:04;;;;;;;8.03;3.40;;;1.10;99.90;;;;;;6189805;23;20016;-88
2023/03/03 01:43:46;;;;;;;7.47;3.20;;;1.10;99.90;;;;;;6190124;23;20016;-92
2023/03/03 01:50:27;;;;;;;6.68;2.50;;;1.00;99.90;;;;;;6214502;23;20362;-89
2023/03/03 01:52:56;;;;;;;8.32;3.22;;;0.90;99.90;;;;;;6160234;23;20028;-91
2023/03/03 01:55:29;;;;;;;6.22;2.70;;;0.90;99.90;;;;;;6135123;23;20025;-88
2023/03/03 01:58:03;;;;;;;7.60;3.20;;;0.90;99.90;;;;;;6135988;23;20076;-90
2023/03/03 02:00:31;;;;;;;7.10;3.03;;;0.80;99.90;;;;;;6135291;23;20522;-88
2023/03/03 02:02:57;;;;;;;9.10;3.35;;;0.80;99.90;;;;;;6135420;23;20019;-89
2023/03/03 02:05:24;;;;;;;6.57;2.70;;;0.80;99.90;;;;;;6134884;23;20017;-87
2023/03/03 02:07:52;;;;;;;7.22;3.05;;;0.70;99.90;;;;;;6135179;23;20020;-88
2023/03/03 02:10:20;;;;;;;6.80;2.47;;;0.70;99.90;;;;;;6135298;23;20017;-88
2023/03/03 02:12:51;;;;;;;6.95;2.85;;;0.70;99.90;;;;;;6110922;23;20017;-89
2023/03/03 02:15:25;;;;;;;7.03;2.45;;;0.70;99.90;;;;;;6135098;23;20027;-88
2023/03/03 02:18:00;;;;;;;6.05;2.25;;;0.70;99.90;;;;;;6159661;23;20013;-89
2023/03/03 02:21:07;;;;;;;7.95;2.67;;;0.60;99.90;;;;;;6136100;23;20028;-88
2023/03/03 02:23:39;;;;;;;7.68;2.97;;;0.60;99.90;;;;;;6160141;23;20099;-88
2023/03/03 02:26:06;;;;;;;8.77;3.25;;;0.50;99.90;;;;;;6159786;23;20021;-87
2023/03/03 02:28:32;;;;;;;;;;;0.60;99.90;;;;;;6160473;23;20021;-89
2023/03/03 02:31:36;;;;;;;6.57;2.78;;;0.50;99.90;;;;;;6135044;23;20394;-89
2023/03/03 02:34:44;;;;;;;6.88;2.63;;;0.50;99.90;;;;;;6135511;23;20029;-89
2023/03/03 02:37:47;;;;;;;7.57;2.80;;;0.50;99.90;;;;;;6185712;23;20354;-89
2023/03/03 02:40:17;;;;;;;6.27;2.60;;;0.40;99.90;;;;;;6135325;23;20096;-89
2023/03/03 02:42:45;;;;;;;7.50;2.92;;;0.40;99.90;;;;;;6134691;23;20283;-89
2023/03/03 02:45:14;;;;;;;6.13;2.63;;;0.40;99.90;;;;;;6134897;23;20021;-87
2023/03/03 02:47:57;;;;;;;6.82;3.10;;;0.40;99.90;;;;;;6135141;23;20017;-87
2023/03/03 02:50:23;;;;;;;7.43;3.35;;;0.40;99.90;;;;;;6134906;23;20017;-89
2023/03/03 02:52:55;;;;;;;6.88;2.70;;;0.40;99.90;;;;;;6135264;23;20027;-89
2023/03/03 02:55:26;;;;;;;7.22;2.97;;;0.30;99.90;;;;;;6135389;23;20021;-90
2023/03/03 02:57:52;;;;;;;7.63;3.05;;;0.30;99.90;;;;;;6087668;23;20021;-89
2023/03/03 03:00:18;;;;;;;6.43;2.67;;;0.30;99.90;;;;;;6135276;23;20013;-89
2023/03/03 03:03:00;;;;;;;6.32;2.88;;;0.30;99.90;;;;;;6134940;23;20017;-89
2023/03/03 03:08:01;;;;;;;7.28;2.67;;;0.30;99.90;;;;;;6203161;23;20401;-85
2023/03/03 03:10:27;;;;;;;6.30;3.05;;;0.30;99.90;;;;;;6164047;23;20024;-85
2023/03/03 03:12:53;;;;;;;6.82;3.15;;;0.30;99.90;;;;;;6139449;23;20013;-85
2023/03/03 03:15:31;;;;;;;7.97;3.58;;;0.30;99.90;;;;;;6164044;23;20025;-86
2023/03/03 03:18:40;;;;;;;7.03;2.97;;;0.20;99.90;;;;;;6165479;23;20009;-85
2023/03/03 03:52:52;;;;;;;7.65;3.20;;;0.10;99.90;;;;;;6186836;23;20028;-89
2023/03/03 03:55:18;;;;;;;6.55;2.92;;;0.10;99.90;;;;;;6113223;23;20054;-88
2023/03/03 03:57:49;;;;;;;8.50;3.10;;;0.10;99.90;;;;;;6136629;23;20013;-87
2023/03/03 04:00:24;;;;;;;8.00;3.30;;;0.10;99.90;;;;;;6135934;23;20358;-88
2023/03/03 04:03:01;;;;;;;8.02;3.47;;;0.10;99.90;;;;;;6112932;23;20017;-87
2023/03/03 04:49:35;;;;;;;6.72;3.15;;;-0.10;99.90;;;;;;6187550;23;20025;-95
2023/03/03 04:52:02;;;;;;;7.78;3.22;;;-0.10;99.90;;;;;;6140953;23;20032;-96
2023/03/03 04:54:27;;;;;;;5.83;2.87;;;-0.20;99.90;;;;;;6141841;23;20016;-96
2023/03/03 04:56:53;;;;;;;6.22;2.67;;;-0.20;99.90;;;;;;6141121;23;20013;-94
2023/03/03 05:30:36;;;;;;;5.57;2.83;;;-0.40;99.90;;;;;;6187436;23;20025;-92
2023/03/03 05:33:04;;;;;;;5.78;2.58;;;-0.30;99.90;;;;;;6136746;23;20095;-93
2023/03/03 05:35:29;;;;;;;7.07;3.22;;;-0.30;99.90;;;;;;6136611;23;20354;-96
2023/03/03 05:37:57;;;;;;;6.90;3.15;;;-0.30;99.90;;;;;;6136911;23;20048;-96
2023/03/03 05:40:23;;;;;;;;;;;-0.30;99.90;;;;;;6136940;23;20021;-93
2023/03/03 05:45:23;;;;;;;6.45;2.85;;;-0.30;99.90;;;;;;6201616;23;20028;-94
2023/03/03 05:47:50;;;;;;;6.15;2.80;;;-0.30;99.90;;;;;;6166313;23;20020;-94
2023/03/03 05:50:16;;;;;;;;;;;-0.20;99.90;;;;;;6166304;23;20095;-93
2023/03/03 06:24:11;;;;;;;6.03;2.78;;;-0.30;99.90;;;;;;6185520;23;20037;-87
2023/03/03 06:26:37;;;;;;;5.57;2.60;;;-0.30;99.90;;;;;;6137248;23;20342;-88
2023/03/03 06:29:03;;;;;;;7.22;3.38;;;-0.30;99.90;;;;;;6135023;23;20037;-87
2023/03/03 06:31:28;;;;;;;6.22;3.00;;;-0.30;99.90;;;;;;6134421;23;20013;-86
2023/03/03 06:33:54;;;;;;;7.88;3.60;;;-0.30;99.90;;;;;;6134002;23;20028;-87
2023/03/03 06:36:20;;;;;;;7.07;2.75;;;-0.30;99.90;;;;;;6134657;23;20021;-86
2023/03/03 06:38:46;;;;;;;13.13;5.57;;;-0.20;99.90;;;;;;6133557;23;20040;-87
2023/03/03 06:41:12;;;;;;;5.78;2.53;;;-0.20;99.90;;;;;;6159400;23;20455;-88
2023/03/03 06:43:38;;;;;;;7.53;2.72;;;-0.20;99.90;;;;;;6134942;23;20021;-87
2023/03/03 06:46:04;;;;;;;7.85;2.90;;;-0.10;99.90;;;;;;6134766;23;20021;-86
2023/03/03 06:48:31;;;;;;;5.95;2.95;;;-0.10;99.90;;;;;;6134832;23;20048;-87
2023/03/03 06:51:21;;;;;;;6.85;2.90;;;0.00;99.90;;;;;;6134612;23;20024;-88
2023/03/03 06:53:56;;;;;;;7.50;3.25;;;0.00;99.90;;;;;;6134999;23;20024;-89
2023/03/03 06:56:26;;;;;;;7.20;2.97;;;0.00;99.90;;;;;;6135834;23;20080;-90
2023/03/03 06:59:01;;;;;;;7.03;3.10;;;0.00;99.90;;;;;;6135187;23;20020;-87
2023/03/03 07:01:33;;;;;;;7.55;3.00;;;0.10;99.90;;;;;;6135298;23;20025;-88
2023/03/03 07:03:59;;;;;;;7.25;2.88;;;0.20;99.90;;;;;;6135950;23;20017;-88
2023/03/03 07:06:27;;;;;;;8.48;2.80;;;0.30;99.90;;;;;;6135766;23;20744;-90
2023/03/03 07:08:53;;;;;;;8.45;3.33;;;0.30;99.90;;;;;;6159361;23;20338;-88
2023/03/03 07:11:21;;;;;;;7.65;3.47;;;0.40;99.90;;;;;;6134779;23;20013;-88
2023/03/03 07:13:49;;;;;;;8.25;3.10;;;0.50;99.90;;;;;;6135592;23;20021;-91
2023/03/03 07:16:17;;;;;;;6.40;2.60;;;0.70;99.90;;;;;;6137278;23;20021;-89
2023/03/03 07:21:31;;;;;;;;;;;1.10;99.90;;;;;;6214692;23;20393;-89
2023/03/03 07:23:58;;;;;;;8.23;2.63;;;1.30;99.90;;;;;;6164089;23;19962;-89
2023/03/03 07:26:31;;;;;;;7.50;2.92;;;1.50;99.90;;;;;;6165042;23;20442;-88
2023/03/03 07:29:21;;;;;;;10.20;3.45;;;1.60;99.90;;;;;;6165238;23;20020;-92
2023/03/03 07:31:51;;;;;;;6.40;2.53;;;1.70;99.90;;;;;;6144234;23;20016;-91
2023/03/03 07:34:25;;;;;;;6.97;2.83;;;1.70;99.90;;;;;;6140758;23;20032;-89
2023/03/03 07:37:00;;;;;;;5.85;2.60;;;1.70;99.90;;;;;;6165459;23;20012;-92
2023/03/03 07:39:34;;;;;;;6.53;2.92;;;1.70;99.90;;;;;;6164859;23;20027;-89
2023/03/03 07:42:09;;;;;;;5.28;2.78;;;1.70;99.90;;;;;;6164506;23;20078;-91
2023/03/03 07:44:36;;;;;;;7.80;2.67;;;1.70;99.90;;;;;;6165102;23;20021;-92
2023/03/03 07:47:23;;;;;;;7.85;2.72;;;1.60;99.90;;;;;;6164760;23;20017;-89
2023/03/03 07:49:55;;;;;;;5.03;2.10;;;1.70;99.90;;;;;;6165171;23;20013;-90
2023/03/03 07:52:41;;;;;;;6.25;2.30;;;1.60;99.90;;;;;;6163551;23;20024;-94
2023/03/03 07:55:38;;;;;;;7.63;2.95;;;1.60;99.90;;;;;;6165104;23;20047;-91
2023/03/03 07:58:11;;;;;;;5.90;2.58;;;1.60;99.90;;;;;;6164583;23;20023;-89
2023/03/03 08:01:15;;;;;;;8.50;2.63;;;1.60;99.90;;;;;;6163924;23;20009;-89
2023/03/03 08:03:45;;;;;;;7.20;2.97;;;1.60;99.90;;;;;;6164263;23;20013;-88
2023/03/03 08:06:35;;;;;;;8.15;2.80;;;1.60;99.90;;;;;;6165828;23;20013;-88
2023/03/03 08:09:21;;;;;;;6.30;2.22;;;1.60;99.90;;;;;;6165870;23;20454;-91
2023/03/03 08:11:53;;;;;;;4.55;1.95;;;1.70;99.90;;;;;;6122148;23;20029;-86
2023/03/03 08:14:26;;;;;;;5.25;2.13;;;1.70;99.90;;;;;;6190425;23;20443;-88
2023/03/03 08:16:52;;;;;;;5.28;2.10;;;1.70;99.90;;;;;;6165458;23;20024;-92
2023/03/03 08:19:18;;;;;;;4.60;2.13;;;1.70;99.90;;;;;;6166008;23;20350;-87
2023/03/03 08:21:44;;;;;;;5.83;2.30;;;1.70;99.90;;;;;;6165666;23;20021;-88
2023/03/03 08:24:34;;;;;;;5.27;2.30;;;1.80;99.90;;;;;;6190472;23;20027;-86
2023/03/03 10:44:15;;;;;;;1.42;0.60;;;5.40;99.90;;;;;;6210032;22;20020;-90
2023/03/03 10:47:15;;;;;;;3.70;0.70;;;5.40;99.90;;;;;;6134648;23;20481;-91
2023/03/03 10:50:21;;;;;;;1.60;0.50;;;5.50;99.90;;;;;;6134908;23;20020;-88
2023/03/03 10:53:31;;;;;;;1.23;0.32;;;5.40;99.90;;;;;;6134903;23;20027;-92
2023/03/03 10:56:25;;;;;;;0.75;0.40;;;5.50;99.90;;;;;;6135615;23;20017;-93
2023/03/03 10:59:32;;;;;;;3.33;0.73;;;5.50;99.90;;;;;;6136254;23;20466;-93
2023/03/03 12:14:12;;;;;;;2.05;0.45;;;6.60;99.90;;;;;;6214208;23;20021;-95
2023/03/03 12:16:50;;;;;;;1.58;0.20;;;6.70;99.90;;;;;;6131838;23;20021;-94
2023/03/03 12:19:33;;;;;;;3.70;0.40;;;6.70;99.90;;;;;;6140074;23;20059;-96
2023/03/03 12:32:56;;;;;;;;;;;6.80;99.90;;;;;;6188913;23;20338;-92
2023/03/03 13:35:12;;;;;;;8.15;0.63;;;6.70;99.90;;;;;;6221090;23;20024;-96
2023/03/03 13:37:48;;;;;;;5.45;0.88;;;6.60;99.90;;;;;;6170883;23;20027;-90
2023/03/03 13:40:36;;;;;;;11.27;1.20;;;6.60;99.90;;;;;;6171119;23;20027;-96
2023/03/03 13:50:43;;;;;;;;;;;6.60;99.90;;;;;;6218324;23;20460;-92
2023/03/03 13:53:24;;;;;;;5.35;0.80;;;6.60;99.90;;;;;;6165741;23;20245;-91
2023/03/03 13:56:14;;;;;;;4.63;0.70;;;6.60;99.90;;;;;;6165796;23;20036;-93
2023/03/03 13:58:45;;;;;;;11.23;2.05;;;6.60;99.90;;;;;;6165650;23;20027;-93
2023/03/03 14:02:07;;;;;;;5.32;0.95;;;6.50;99.90;;;;;;6165939;23;20020;-91
2023/03/03 14:04:52;;;;;;;3.90;0.90;;;6.50;99.90;;;;;;6165512;23;20017;-92
2023/03/03 14:07:27;;;;;;;6.95;0.75;;;6.50;99.90;;;;;;6165650;23;20012;-93
2023/03/03 14:10:24;;;;;;;7.25;0.77;;;6.40;99.90;;;;;;6165605;23;20075;-93
2023/03/03 14:22:53;;;;;;;5.85;0.80;;;6.40;99.90;;;;;;6217456;23;20028;-93
2023/03/03 14:25:22;;;;;;;4.10;0.60;;;6.40;99.90;;;;;;6147538;23;20028;-92
2023/03/03 14:33:08;;;;;;;5.80;0.85;;;6.50;99.90;;;;;;6209438;23;20020;-91
2023/03/03 14:35:36;;;;;;;10.73;0.95;;;6.50;99.90;;;;;;6155697;23;20495;-96
2023/03/03 14:38:07;;;;;;;4.95;0.82;;;6.50;99.90;;;;;;6196852;23;20072;-94
2023/03/03 14:40:41;;;;;;;8.45;0.90;;;6.50;99.90;;;;;;6197724;23;20017;-96
2023/03/03 14:43:36;;;;;;;3.88;0.90;;;6.50;99.90;;;;;;6195433;23;20016;-92
2023/03/03 14:46:40;;;;;;;6.68;1.00;;;6.50;99.90;;;;;;6173008;23;20012;-96
2023/03/03 14:49:27;;;;;;;8.18;0.98;;;6.40;99.90;;;;;;6173868;23;20017;-96
2023/03/03 14:51:59;;;;;;;4.93;0.88;;;6.40;99.90;;;;;;6176391;23;20450;-96
2023/03/03 15:04:40;;;;;;;4.50;0.80;;;6.40;99.90;;;;;;6198365;23;20472;-91
2023/03/03 15:07:44;;;;;;;6.73;0.73;;;6.40;99.90;;;;;;6164945;23;20016;-93
2023/03/03 15:10:24;;;;;;;3.15;0.80;;;6.40;99.90;;;;;;6164936;23;20013;-93
2023/03/03 15:12:59;;;;;;;5.38;0.88;;;6.40;99.90;;;;;;6165479;23;20316;-93
2023/03/03 15:41:19;;;;;;;6.47;0.80;;;6.40;99.90;;;;;;6158222;23;20032;-91
2023/03/03 15:43:53;;;;;;;3.50;0.60;;;6.40;99.90;;;;;;6108122;23;20017;-90
2023/03/03 15:53:24;;;;;;;8.02;1.23;;;6.40;99.90;;;;;;6132340;23;19955;-93
2023/03/03 15:56:11;;;;;;;5.20;0.60;;;6.30;99.90;;;;;;6107892;23;20108;-90
2023/03/03 15:59:03;;;;;;;6.32;1.38;;;6.40;99.90;;;;;;6108788;23;20103;-93
2023/03/03 16:01:33;;;;;;;4.88;0.70;;;6.30;99.90;;;;;;6108816;23;20017;-91
2023/03/03 16:04:08;;;;;;;5.60;0.63;;;6.30;99.90;;;;;;6108266;23;20021;-95
2023/03/03 16:07:15;;;;;;;6.10;1.10;;;6.30;99.90;;;;;;6110079;23;20018;-95
2023/03/03 16:10:00;;;;;;;7.15;0.60;;;6.30;99.90;;;;;;6109933;23;20049;-96
2023/03/03 16:12:43;;;;;;;6.82;1.48;;;6.30;99.90;;;;;;6109377;23;20052;-93
2023/03/03 16:23:04;;;;;;;7.95;1.70;;;6.30;99.90;;;;;;6165241;23;20032;-93
2023/03/03 16:25:52;;;;;;;6.00;1.17;;;6.30;99.90;;;;;;6114813;23;20045;-96
2023/03/03 16:29:10;;;;;;;12.07;1.30;;;6.20;99.90;;;;;;6115081;23;20518;-95
2023/03/03 16:34:20;;;;;;;8.43;1.00;;;6.20;99.90;;;;;;6213387;23;20021;-92
2023/03/03 16:37:38;;;;;;;6.90;1.33;;;6.20;99.90;;;;;;6138395;23;20048;-94
2023/03/03 16:40:19;;;;;;;6.35;1.25;;;6.20;99.90;;;;;;6137397;23;20017;-94
2023/03/03 16:43:12;;;;;;;6.68;1.00;;;6.10;99.90;;;;;;6138199;23;20048;-93
2023/03/03 16:50:12;;;;;;;8.98;0.80;;;6.10;99.90;;;;;;6097977;23;20021;-93
2023/03/03 16:53:11;;;;;;;6.45;0.93;;;6.10;99.90;;;;;;6048360;23;20018;-94
2023/03/03 16:56:07;;;;;;;5.30;1.52;;;6.10;99.90;;;;;;6049071;23;20554;-93
2023/03/03 16:58:44;;;;;;;6.75;0.95;;;6.00;99.90;;;;;;6048457;23;20101;-94
2023/03/03 17:02:09;;;;;;;6.97;1.40;;;6.10;99.90;;;;;;6136335;23;20016;-95
2023/03/03 17:37:20;;;;;;;12.23;2.08;;;5.90;99.90;;;;;;6239733;22;20446;-93
2023/03/03 17:40:15;;;;;;;9.30;1.30;;;5.90;99.90;;;;;;6190938;23;20025;-93
2023/03/03 17:43:05;;;;;;;7.75;1.25;;;5.90;99.90;;;;;;6190847;23;20450;-93
2023/03/03 17:45:36;;;;;;;6.85;1.90;;;5.90;99.90;;;;;;6190603;23;20017;-93
2023/03/03 17:48:23;;;;;;;10.80;2.00;;;5.90;99.90;;;;;;6190953;23;20012;-92
2023/03/03 17:54:42;;;;;;;7.57;1.10;;;5.90;99.90;;;;;;6217103;23;20016;-93
2023/03/03 17:57:26;;;;;;;;;;;5.90;99.90;;;;;;6191134;23;20013;-94
2023/03/03 18:07:19;;;;;;;11.90;1.15;;;5.90;99.90;;;;;;6215377;23;19962;-89
2023/03/03 18:09:54;;;;;;;8.57;0.77;;;5.80;99.90;;;;;;6189058;23;20028;-89
2023/03/03 18:12:54;;;;;;;7.10;1.25;;;5.90;99.90;;;;;;6213926;23;20115;-88
2023/03/03 18:15:32;;;;;;;6.68;1.50;;;5.80;99.90;;;;;;6188758;23;20016;-88
2023/03/03 18:18:17;;;;;;;8.75;1.17;;;5.90;99.90;;;;;;6214047;23;20012;-89
2023/03/03 18:23:26;;;;;;;7.25;1.40;;;5.80;99.90;;;;;;6211089;23;20028;-96
2023/03/03 18:26:07;;;;;;;6.25;1.10;;;5.90;99.90;;;;;;6223457;23;20020;-95
2023/03/03 18:28:49;;;;;;;10.32;2.08;;;5.90;99.90;;;;;;6176622;23;20017;-96
2023/03/03 18:31:26;;;;;;;7.10;0.75;;;5.90;99.90;;;;;;6175170;23;20027;-94
2023/03/03 18:41:28;;;;;;;8.05;0.85;;;5.90;99.90;;;;;;6223060;23;20015;-94
2023/03/03 18:44:21;;;;;;;5.88;1.05;;;5.90;99.90;;;;;;6174248;23;20012;-90
2023/03/03 18:46:51;;;;;;;9.40;1.10;;;5.90;99.90;;;;;;6173923;23;20056;-95
2023/03/03 18:49:17;;;;;;;10.07;1.23;;;5.90;99.90;;;;;;6173197;23;20013;-95
2023/03/03 18:51:44;;;;;;;5.28;0.93;;;5.90;99.90;;;;;;6172990;23;20474;-94
2023/03/03 18:54:16;;;;;;;6.32;1.10;;;5.90;99.90;;;;;;6169474;23;20016;-94
2023/03/03 18:56:57;;;;;;;4.00;0.93;;;5.90;99.90;;;;;;6170112;23;20017;-95
2023/03/03 18:59:35;;;;;;;3.75;1.17;;;5.90;99.90;;;;;;6171399;23;20036;-95
2023/03/03 19:02:33;;;;;;;6.47;0.95;;;5.90;99.90;;;;;;6169024;23;20040;-96
2023/03/03 19:05:23;;;;;;;10.73;1.13;;;5.90;99.90;;;;;;6171867;23;20020;-94
2023/03/03 19:08:02;;;;;;;8.85;1.10;;;5.90;99.90;;;;;;6168879;23;20060;-94
2023/03/03 19:10:49;;;;;;;9.45;0.80;;;5.90;99.90;;;;;;6171428;23;20024;-96
2023/03/03 19:13:34;;;;;;;5.68;1.50;;;5.90;99.90;;;;;;6171656;23;20074;-93
2023/03/03 19:16:24;;;;;;;5.32;1.33;;;5.90;99.90;;;;;;6169175;23;20099;-90
2023/03/03 19:18:58;;;;;;;7.13;1.08;;;5.90;99.90;;;;;;6171651;23;20048;-93
2023/03/03 19:21:27;;;;;;;7.05;0.88;;;5.90;99.90;;;;;;6171983;23;20101;-94
2023/03/03 19:27:18;;;;;;;10.57;0.90;;;5.80;99.90;;;;;;6216357;23;20334;-90
2023/03/03 19:29:44;;;;;;;7.05;0.88;;;5.80;99.90;;;;;;6165070;23;20016;-95
2023/03/03 19:32:31;;;;;;;2.80;0.83;;;5.80;99.90;;;;;;6165479;23;20015;-94
2023/03/03 19:42:38;;;;;;;;;;;5.80;99.90;;;;;;6216162;23;20016;-88
2023/03/03 19:45:16;;;;;;;6.28;0.80;;;5.80;99.90;;;;;;6163705;23;19920;-90
2023/03/03 19:48:02;;;;;;;8.43;0.65;;;5.80;99.90;;;;;;6164236;23;20050;-88
2023/03/03 19:50:49;;;;;;;8.25;0.93;;;5.80;99.90;;;;;;6188449;23;20013;-89
2023/03/03 20:16:53;;;;;;;5.25;0.95;;;5.80;99.90;;;;;;6222484;23;20031;-95
2023/03/03 20:19:56;;;;;;;3.65;0.70;;;5.80;99.90;;;;;;6147135;23;20025;-92
2023/03/03 20:22:49;;;;;;;3.58;0.60;;;5.80;99.90;;;;;;6170061;23;20017;-91
2023/03/03 20:25:31;;;;;;;5.63;0.80;;;5.80;99.90;;;;;;6169143;23;20466;-92
2023/03/03 20:28:33;;;;;;;5.93;1.15;;;5.80;99.90;;;;;;6170120;23;20455;-95
2023/03/03 20:31:08;;;;;;;4.18;1.05;;;5.80;99.90;;;;;;6172708;23;20020;-94
2023/03/03 20:34:01;;;;;;;6.10;0.70;;;5.80;99.90;;;;;;6170944;23;20016;-94
2023/03/03 20:36:40;;;;;;;9.75;3.38;;;5.80;99.90;;;;;;6173034;23;20020;-92
2023/03/03 20:46:33;;;;;;;2.88;0.60;;;5.80;99.90;;;;;;6217650;23;20301;-93
2023/03/03 20:49:31;;;;;;;4.30;0.60;;;5.90;99.90;;;;;;6166334;23;20016;-94
2023/03/03 20:52:10;;;;;;;5.28;0.80;;;5.90;99.90;;;;;;6166522;23;20349;-95
2023/03/03 20:55:22;;;;;;;5.82;0.82;;;5.90;99.90;;;;;;6166646;23;20017;-95
2023/03/03 20:58:11;;;;;;;4.40;0.55;;;5.90;99.90;;;;;;6166248;23;20017;-95
2023/03/03 21:01:02;;;;;;;2.85;0.40;;;5.90;99.90;;;;;;6167072;23;20023;-92
2023/03/03 21:03:39;;;;;;;6.15;1.02;;;5.90;99.90;;;;;;6166363;23;20064;-91
2023/03/03 21:06:16;;;;;;;4.20;0.70;;;5.90;99.90;;;;;;6166318;23;20048;-92
2023/03/03 21:09:07;;;;;;;;;;;;;;;;;;;;;
2023/03/03 21:12:00;;;;;;;4.55;0.52;;;5.90;99.90;;;;;;6190475;23;20066;-93
2023/03/03 21:15:24;;;;;;;3.78;0.50;;;5.90;99.90;;;;;;6166676;23;20091;-92
2023/03/03 21:18:50;;;;;;;;;;;;;;;;;;;;;
2023/03/03 21:40:34;;;;;;;4.78;1.05;;;5.80;99.90;;;;;;6192787;23;20029;-90
2023/03/03 21:45:49;;;;;;;4.25;0.80;;;5.90;99.90;;;;;;6189018;23;20021;-91
2023/03/03 21:48:15;;;;;;;2.40;0.37;;;5.90;99.90;;;;;;6138765;23;20459;-93
2023/03/03 21:50:41;;;;;;;21.45;5.90;;;5.90;99.90;;;;;;6114776;23;20470;-94
2023/03/03 21:53:07;;;;;;;5.10;0.75;;;5.90;99.90;;;;;;6091038;23;20025;-91
2023/03/03 21:55:33;;;;;;;5.73;0.93;;;5.80;99.90;;;;;;6138404;23;20019;-94
2023/03/03 22:05:11;;;;;;;6.18;0.40;;;5.90;99.90;;;;;;6188373;23;20402;-92
2023/03/03 22:07:36;;;;;;;2.90;0.23;;;5.90;99.90;;;;;;6089004;23;20017;-93
2023/03/03 22:10:02;;;;;;;3.50;0.37;;;5.90;99.90;;;;;;6088933;23;20013;-93
2023/03/03 22:12:28;;;;;;;2.88;0.60;;;5.90;99.90;;;;;;6112179;23;20079;-94
2023/03/03 22:14:54;;;;;;;4.27;0.73;;;5.80;99.90;;;;;;6140852;23;20443;-95
2023/03/03 22:20:06;;;;;;;4.10;0.73;;;5.90;99.90;;;;;;6187032;23;20076;-89
2023/03/03 22:22:32;;;;;;;3.92;0.50;;;5.90;99.90;;;;;;6135876;23;20025;-91
2023/03/03 22:24:57;;;;;;;3.00;0.60;;;5.90;99.90;;;;;;6087945;23;20288;-90
2023/03/03 22:27:23;;;;;;;2.60;0.40;;;5.90;99.90;;;;;;6088579;23;20016;-91
2023/03/03 22:29:49;;;;;;;8.05;0.57;;;5.90;99.90;;;;;;6088975;23;20017;-92
2023/03/03 22:32:15;;;;;;;3.43;0.60;;;5.90;99.90;;;;;;6088787;23;20013;-93
2023/03/03 22:38:49;;;;;;;5.63;0.77;;;5.90;99.90;;;;;;6188861;23;20147;-93
2023/03/03 22:41:16;;;;;;;5.18;0.38;;;5.90;99.90;;;;;;6161980;23;20017;-96
2023/03/03 22:43:42;;;;;;;8.95;0.80;;;5.80;99.90;;;;;;6138548;23;20095;-93
2023/03/03 22:46:08;;;;;;;2.67;0.20;;;5.80;99.90;;;;;;6112530;23;20466;-93
2023/03/03 22:48:34;;;;;;;6.75;0.70;;;5.90;99.90;;;;;;6111842;23;20100;-95
2023/03/03 22:51:00;;;;;;;3.17;0.57;;;5.80;99.90;;;;;;6115220;23;20413;-96
2023/03/03 22:56:01;;;;;;;4.32;0.50;;;5.80;99.90;;;;;;6169383;23;20028;-93
2023/03/03 22:58:28;;;;;;;2.63;0.57;;;5.90;99.90;;;;;;6131006;23;20021;-94
2023/03/03 23:00:55;;;;;;;3.15;0.70;;;5.80;99.90;;;;;;6106582;23;20065;-92
2023/03/03 23:03:20;;;;;;;;;;;5.90;99.90;;;;;;6106898;23;20100;-94
2023/03/03 23:05:47;;;;;;;7.15;0.60;;;5.90;99.90;;;;;;6106501;23;20290;-93
2023/03/03 23:12:19;;;;;;;3.35;0.50;;;5.90;99.90;;;;;;6157965;23;20032;-94
2023/03/03 23:14:44;;;;;;;1.52;0.47;;;5.80;99.90;;;;;;6116105;23;20029;-94
2023/03/03 23:17:11;;;;;;;2.80;1.07;;;5.80;99.90;;;;;;6088444;23;20013;-94
2023/03/03 23:19:36;;;;;;;4.95;0.80;;;5.80;99.90;;;;;;6110775;23;20451;-93
2023/03/03 23:24:41;;;;;;;5.70;0.73;;;5.80;99.90;;;;;;6162804;23;20032;-93
2023/03/03 23:27:27;;;;;;;3.50;0.43;;;5.80;99.90;;;;;;6139383;23;20080;-91
2023/03/03 23:29:53;;;;;;;2.42;0.32;;;5.80;99.90;;;;;;6139584;23;20028;-90
2023/03/03 23:32:23;;;;;;;4.47;0.70;;;5.90;99.90;;;;;;6140177;23;20013;-92
2023/03/03 23:34:53;;;;;;;6.78;0.50;;;5.80;99.90;;;;;;6139258;23;20073;-90
2023/03/03 23:37:59;;;;;;;5.82;0.50;;;5.90;99.90;;;;;;6114633;23;20072;-94
2023/03/03 23:41:05;;;;;;;2.50;0.40;;;5.80;99.90;;;;;;6138339;23;20013;-95
2023/03/03 23:44:13;;;;;;;5.32;0.90;;;5.90;99.90;;;;;;6135866;23;20021;-92
2023/03/03 23:47:02;;;;;;;4.20;0.73;;;5.80;99.90;;;;;;6135487;23;20013;-93
2023/03/03 23:49:54;;;;;;;3.08;0.50;;;5.80;99.90;;;;;;6112957;23;20744;-93
2023/03/03 23:52:23;;;;;;;5.07;0.50;;;5.80;99.90;;;;;;6114185;23;20017;-93
2023/03/03 23:55:22;;;;;;;6.97;0.55;;;5.80;99.90;;;;;;6135299;23;20017;-93
